Time;durP1;ratioP1;P1;durP2;ratioP2;P2;SDS_P1;SDS_P2;PMS_P1;PMS_P2;Temp;Humidity;BMP_temperature;BMP_pressure;BME280_temperature;BME280_humidity;BME280_pressure;Samples;Min_cycle;Max_cycle;Signal;HPM_P1;HPM_P2
2022/06/11 00:01:01;;;;;;;6.65;3.75;;;17.70;99.90;;;;;;5028743;28;20032;-87
2022/06/11 00:03:27;;;;;;;6.35;3.50;;;17.70;99.90;;;;;;5045380;28;20025;-82
2022/06/11 00:05:53;;;;;;;6.85;2.65;;;17.70;99.90;;;;;;5044164;28;20629;-83
2022/06/11 00:08:20;;;;;;;5.50;2.70;;;17.60;99.90;;;;;;5027715;28;20036;-82
2022/06/11 00:10:47;;;;;;;4.75;2.45;;;17.60;99.90;;;;;;5039959;28;20036;-85
2022/06/11 00:13:14;;;;;;;3.97;2.28;;;17.60;99.90;;;;;;5056305;28;20040;-85
2022/06/11 00:15:42;;;;;;;7.35;2.72;;;17.50;99.90;;;;;;5047283;28;20098;-84
2022/06/11 00:18:09;;;;;;;4.63;1.50;;;17.50;99.90;;;;;;5065862;28;20029;-80
2022/06/11 00:20:36;;;;;;;4.63;1.85;;;17.50;99.90;;;;;;5058284;28;20498;-82
2022/06/11 00:23:03;;;;;;;3.47;1.67;;;17.40;99.90;;;;;;5063215;28;20047;-81
2022/06/11 00:25:32;;;;;;;2.83;1.40;;;17.40;99.90;;;;;;5077690;28;20049;-85
2022/06/11 00:27:59;;;;;;;7.75;2.70;;;17.30;99.90;;;;;;5044097;28;20036;-80
2022/06/11 00:30:26;;;;;;;5.20;2.63;;;17.30;99.90;;;;;;5042894;28;20040;-83
2022/06/11 00:32:55;;;;;;;4.35;2.35;;;17.30;99.90;;;;;;5060149;28;20032;-81
2022/06/11 00:35:23;;;;;;;3.83;1.92;;;17.20;99.90;;;;;;5062503;28;20032;-81
2022/06/11 00:37:50;;;;;;;3.63;1.40;;;17.20;99.90;;;;;;5064424;28;20043;-81
2022/06/11 00:40:20;;;;;;;4.75;1.63;;;17.10;99.90;;;;;;5050660;28;20044;-80
2022/06/11 00:42:46;;;;;;;4.65;1.58;;;17.10;99.90;;;;;;5061249;28;20379;-82
2022/06/11 00:45:29;;;;;;;4.50;1.50;;;17.00;99.90;;;;;;5047246;28;20032;-82
2022/06/11 00:48:04;;;;;;;2.45;1.17;;;17.00;99.90;;;;;;5078055;28;20040;-82
2022/06/11 00:50:43;;;;;;;3.28;1.25;;;16.90;99.90;;;;;;5077636;28;20044;-84
2022/06/11 00:53:39;;;;;;;3.55;1.00;;;16.90;99.90;;;;;;5071719;28;20020;-84
2022/06/11 00:56:14;;;;;;;2.55;0.88;;;16.80;99.90;;;;;;5070603;28;20040;-83
2022/06/11 00:58:45;;;;;;;3.20;1.80;;;16.70;99.90;;;;;;5056951;28;20031;-84
2022/06/11 01:01:15;;;;;;;6.15;1.70;;;16.70;99.90;;;;;;5054575;28;20028;-83
2022/06/11 01:03:44;;;;;;;4.80;1.85;;;16.60;99.90;;;;;;5056241;28;20029;-84
2022/06/11 01:06:17;;;;;;;3.38;1.50;;;16.50;99.90;;;;;;5081160;28;20044;-84
2022/06/11 01:09:09;;;;;;;2.90;1.67;;;16.50;99.90;;;;;;5047725;28;20043;-83
2022/06/11 01:11:42;;;;;;;2.38;1.63;;;16.50;99.90;;;;;;5046737;28;20040;-84
2022/06/11 01:14:35;;;;;;;3.28;1.75;;;16.40;99.90;;;;;;5068401;28;20043;-83
2022/06/11 01:17:21;;;;;;;4.35;2.05;;;16.40;99.90;;;;;;5080443;28;20041;-83
2022/06/11 01:20:19;;;;;;;4.47;2.60;;;16.30;99.90;;;;;;5053305;28;20029;-84
2022/06/11 01:23:28;;;;;;;3.13;2.10;;;16.30;99.90;;;;;;5052714;28;20028;-84
2022/06/11 01:26:12;;;;;;;2.10;1.73;;;16.20;99.90;;;;;;5052259;28;20044;-83
2022/06/11 01:29:05;;;;;;;5.57;2.70;;;16.20;99.90;;;;;;5082279;28;20028;-83
2022/06/11 01:31:40;;;;;;;4.75;2.13;;;16.20;99.90;;;;;;5082653;28;20589;-84
2022/06/11 01:34:13;;;;;;;3.47;1.80;;;16.10;99.90;;;;;;5062026;28;20406;-83
2022/06/11 01:36:46;;;;;;;2.90;1.90;;;16.10;99.90;;;;;;5083576;28;20034;-83
2022/06/11 01:39:28;;;;;;;2.70;1.83;;;16.10;99.90;;;;;;5061232;28;20036;-83
2022/06/11 01:42:01;;;;;;;3.88;2.25;;;16.00;99.90;;;;;;5052544;28;20043;-83
2022/06/11 01:44:32;;;;;;;3.33;1.92;;;16.00;99.90;;;;;;5066152;28;20368;-84
2022/06/11 01:46:59;;;;;;;5.07;2.30;;;15.90;99.90;;;;;;5066757;28;20058;-84
2022/06/11 01:49:26;;;;;;;4.30;1.90;;;15.90;99.90;;;;;;5060297;28;20282;-84
2022/06/11 01:52:35;;;;;;;3.28;2.35;;;15.90;99.90;;;;;;5047170;28;20028;-84
2022/06/11 01:55:17;;;;;;;3.22;1.50;;;15.80;99.90;;;;;;5084621;28;20033;-84
2022/06/11 01:58:02;;;;;;;3.70;2.10;;;15.80;99.90;;;;;;5051379;28;20114;-84
2022/06/11 02:00:38;;;;;;;4.00;1.92;;;15.70;99.90;;;;;;5078879;28;20020;-84
2022/06/11 02:03:28;;;;;;;3.85;2.10;;;15.70;99.90;;;;;;5065610;28;20106;-84
2022/06/11 02:06:33;;;;;;;4.55;1.83;;;15.70;99.90;;;;;;5083095;28;20040;-84
2022/06/11 02:09:31;;;;;;;2.78;1.75;;;15.60;99.90;;;;;;5060175;28;20493;-84
2022/06/11 02:12:13;;;;;;;5.28;1.98;;;15.60;99.90;;;;;;5061518;28;20712;-83
2022/06/11 02:14:49;;;;;;;4.20;1.80;;;15.50;99.90;;;;;;5064571;28;20031;-83
2022/06/11 02:17:38;;;;;;;3.15;1.65;;;15.50;99.90;;;;;;5063955;28;22721;-84
2022/06/11 02:20:16;;;;;;;4.20;1.98;;;15.50;99.90;;;;;;5066199;28;20043;-83
2022/06/11 02:22:49;;;;;;;3.05;2.00;;;15.40;99.90;;;;;;5066360;28;20035;-83
2022/06/11 02:25:37;;;;;;;2.75;1.90;;;15.40;99.90;;;;;;5063526;28;20067;-83
2022/06/11 02:28:09;;;;;;;3.70;2.15;;;15.40;99.90;;;;;;5078317;28;20024;-84
2022/06/11 02:30:39;;;;;;;4.80;1.90;;;15.30;99.90;;;;;;5064228;28;20036;-83
2022/06/11 02:33:11;;;;;;;2.50;1.98;;;15.30;99.90;;;;;;5060808;28;20032;-83
2022/06/11 02:35:50;;;;;;;2.08;1.63;;;15.30;99.90;;;;;;5064654;28;20494;-83
2022/06/11 02:38:20;;;;;;;4.45;2.13;;;15.30;99.90;;;;;;5064523;28;20024;-84
2022/06/11 02:40:52;;;;;;;3.45;1.85;;;15.20;99.90;;;;;;5045949;28;20039;-82
2022/06/11 02:43:19;;;;;;;3.95;2.53;;;15.20;99.90;;;;;;5057665;28;20028;-83
2022/06/11 02:45:46;;;;;;;3.85;1.98;;;15.20;99.90;;;;;;5063655;28;20510;-84
2022/06/11 02:48:13;;;;;;;4.03;1.98;;;15.20;99.90;;;;;;5032603;28;20039;-83
2022/06/11 02:50:42;;;;;;;3.90;1.63;;;15.20;99.90;;;;;;5043957;28;20478;-83
2022/06/11 02:53:09;;;;;;;3.92;1.75;;;15.20;99.90;;;;;;5057687;28;20039;-83
2022/06/11 02:55:38;;;;;;;3.03;1.88;;;15.20;99.90;;;;;;5047916;28;20044;-82
2022/06/11 02:58:06;;;;;;;3.75;1.73;;;15.20;99.90;;;;;;5042590;28;20476;-83
2022/06/11 03:00:37;;;;;;;3.17;1.98;;;15.20;99.90;;;;;;5077313;28;20130;-83
2022/06/11 03:03:04;;;;;;;3.83;1.92;;;15.10;99.90;;;;;;5066219;28;20035;-83
2022/06/11 03:05:33;;;;;;;4.78;1.95;;;15.10;99.90;;;;;;5061229;28;20016;-83
2022/06/11 03:08:01;;;;;;;4.57;2.58;;;15.10;99.90;;;;;;5061916;28;20043;-84
2022/06/11 03:10:28;;;;;;;4.55;1.85;;;15.10;99.90;;;;;;5043436;28;20494;-84
2022/06/11 03:12:55;;;;;;;5.70;2.45;;;15.00;99.90;;;;;;5058837;28;20032;-83
2022/06/11 03:15:24;;;;;;;4.15;1.92;;;15.00;99.90;;;;;;5043138;28;20064;-83
2022/06/11 03:17:52;;;;;;;4.03;2.80;;;15.00;99.90;;;;;;5050146;28;20316;-83
2022/06/11 03:20:20;;;;;;;2.90;2.33;;;15.00;99.90;;;;;;5057029;28;20024;-83
2022/06/11 03:22:49;;;;;;;4.40;2.10;;;15.00;99.90;;;;;;5058817;28;20604;-83
2022/06/11 03:25:16;;;;;;;5.97;3.22;;;15.00;99.90;;;;;;5028231;28;20044;-84
2022/06/11 03:27:43;;;;;;;3.47;2.42;;;15.00;99.90;;;;;;5043083;28;20040;-83
2022/06/11 03:30:12;;;;;;;5.50;2.92;;;15.00;99.90;;;;;;5058243;28;20047;-84
2022/06/11 03:32:38;;;;;;;5.53;2.90;;;15.00;99.90;;;;;;5064225;28;20074;-84
2022/06/11 03:35:06;;;;;;;5.80;3.33;;;15.00;99.90;;;;;;5046105;28;20040;-84
2022/06/11 03:37:33;;;;;;;5.55;2.92;;;15.00;99.90;;;;;;5029065;28;20471;-84
2022/06/11 03:40:00;;;;;;;4.47;2.83;;;15.00;99.90;;;;;;5041330;28;20024;-84
2022/06/11 03:42:26;;;;;;;3.63;2.10;;;15.10;99.90;;;;;;5063375;28;20036;-83
2022/06/11 03:44:54;;;;;;;4.13;2.70;;;15.00;99.90;;;;;;5046191;28;20494;-84
2022/06/11 03:47:20;;;;;;;4.10;2.75;;;15.10;99.90;;;;;;5064459;28;20043;-84
2022/06/11 03:49:47;;;;;;;6.75;2.67;;;15.10;99.90;;;;;;5041577;28;20036;-84
2022/06/11 03:52:13;;;;;;;6.50;3.10;;;15.10;99.90;;;;;;5039158;28;20038;-84
2022/06/11 03:54:40;;;;;;;4.65;2.53;;;15.10;99.90;;;;;;5058494;28;20066;-83
2022/06/11 03:57:07;;;;;;;5.10;2.63;;;15.20;99.90;;;;;;5062757;28;20032;-84
2022/06/11 03:59:34;;;;;;;5.25;3.47;;;15.20;99.90;;;;;;5057135;28;20032;-83
2022/06/11 04:02:00;;;;;;;3.72;2.08;;;15.20;99.90;;;;;;5045924;28;20033;-83
2022/06/11 04:04:27;;;;;;;3.33;1.85;;;15.20;99.90;;;;;;5030628;28;20036;-83
2022/06/11 04:06:56;;;;;;;4.68;2.50;;;15.20;99.90;;;;;;5060384;28;20039;-84
2022/06/11 04:09:35;;;;;;;3.67;2.33;;;15.30;99.90;;;;;;5075010;28;20037;-85
2022/06/11 04:12:09;;;;;;;3.63;2.50;;;15.30;99.90;;;;;;5059939;28;20024;-84
2022/06/11 04:14:36;;;;;;;4.65;3.08;;;15.40;99.90;;;;;;5060032;28;20780;-83
2022/06/11 04:17:07;;;;;;;5.18;2.95;;;15.40;99.90;;;;;;5064878;28;20028;-84
2022/06/11 04:19:37;;;;;;;3.95;2.53;;;15.50;99.90;;;;;;5073474;28;20031;-84
2022/06/11 04:22:04;;;;;;;5.10;2.08;;;15.60;99.90;;;;;;5075667;28;20027;-84
2022/06/11 04:24:32;;;;;;;5.43;2.35;;;15.70;99.90;;;;;;5059367;28;20039;-84
2022/06/11 04:27:01;;;;;;;4.35;2.25;;;15.70;99.90;;;;;;5077876;28;20047;-84
2022/06/11 04:29:32;;;;;;;4.80;2.00;;;15.80;99.90;;;;;;5062053;28;20031;-84
2022/06/11 04:32:01;;;;;;;5.55;2.03;;;15.80;99.90;;;;;;5060470;28;20047;-84
2022/06/11 04:34:29;;;;;;;5.78;1.60;;;15.90;99.90;;;;;;5057988;28;20036;-84
2022/06/11 04:36:56;;;;;;;7.95;1.92;;;16.00;99.90;;;;;;5031616;28;20040;-84
2022/06/11 04:39:25;;;;;;;5.45;1.95;;;16.00;99.90;;;;;;5060950;28;20044;-83
2022/06/11 04:41:52;;;;;;;6.10;1.88;;;16.10;99.90;;;;;;5076423;28;20020;-83
2022/06/11 04:44:19;;;;;;;4.45;1.15;;;16.20;99.90;;;;;;5048760;28;20968;-83
2022/06/11 04:46:45;;;;;;;3.85;1.02;;;16.30;99.90;;;;;;5051588;28;20036;-83
2022/06/11 04:49:12;;;;;;;5.20;1.88;;;16.40;99.90;;;;;;5029688;28;20036;-83
2022/06/11 04:51:39;;;;;;;5.65;1.45;;;16.40;99.90;;;;;;5054194;28;20487;-84
2022/06/11 04:54:06;;;;;;;4.35;1.35;;;16.40;99.90;;;;;;5045134;28;20483;-83
2022/06/11 04:56:33;;;;;;;6.10;1.45;;;16.40;99.90;;;;;;5064685;28;20039;-83
2022/06/11 04:58:59;;;;;;;6.75;1.45;;;16.50;99.90;;;;;;5065867;28;20028;-83
2022/06/11 05:01:27;;;;;;;7.22;1.90;;;16.60;99.90;;;;;;5048059;28;20037;-83
2022/06/11 05:03:54;;;;;;;6.07;0.98;;;16.70;99.90;;;;;;5080962;28;20040;-83
2022/06/11 05:06:25;;;;;;;2.88;0.95;;;16.80;99.90;;;;;;5049347;28;20612;-83
2022/06/11 05:08:51;;;;;;;6.75;1.20;;;17.00;99.90;;;;;;5080857;28;20048;-84
2022/06/11 05:11:18;;;;;;;6.15;1.20;;;17.20;99.90;;;;;;5060072;28;20040;-83
2022/06/11 05:13:44;;;;;;;4.80;0.95;;;17.30;99.90;;;;;;5048413;28;20394;-84
2022/06/11 05:16:14;;;;;;;9.20;1.73;;;17.50;99.90;;;;;;5064977;28;20040;-83
2022/06/11 05:18:40;;;;;;;7.53;1.30;;;17.60;99.90;;;;;;5068808;28;20494;-83
2022/06/11 05:21:07;;;;;;;9.07;1.25;;;17.70;99.90;;;;;;5042059;28;20024;-82
2022/06/11 05:23:33;;;;;;;7.60;1.13;;;17.70;99.90;;;;;;5079632;28;20031;-83
2022/06/11 05:26:00;;;;;;;10.07;1.92;;;17.70;99.90;;;;;;5051404;28;20060;-83
2022/06/11 05:28:30;;;;;;;7.30;1.13;;;17.70;99.90;;;;;;5059038;28;20052;-82
2022/06/11 05:30:57;;;;;;;7.60;1.23;;;17.80;99.90;;;;;;5057454;28;20035;-86
2022/06/11 05:33:25;;;;;;;4.93;1.00;;;17.90;99.90;;;;;;5054732;28;20044;-86
2022/06/11 05:35:52;;;;;;;7.70;1.23;;;18.00;99.90;;;;;;5058269;28;20498;-87
2022/06/11 05:38:23;;;;;;;12.00;1.67;;;18.20;99.90;;;;;;5048275;28;20035;-83
2022/06/11 05:40:51;;;;;;;9.18;1.33;;;18.40;99.90;;;;;;5062146;28;22722;-81
2022/06/11 05:43:18;;;;;;;9.52;1.40;;;18.50;99.90;;;;;;5050413;28;20505;-82
2022/06/11 05:45:59;;;;;;;10.15;2.00;;;18.60;99.90;;;;;;5079042;28;20040;-82
2022/06/11 05:48:36;;;;;;;6.75;1.58;;;18.80;99.90;;;;;;5045800;28;20043;-82
2022/06/11 05:51:03;;;;;;;6.05;0.93;;;18.90;99.90;;;;;;5055972;28;20041;-82
2022/06/11 05:53:34;;;;;;;8.95;1.65;;;19.10;99.90;;;;;;5046958;28;20036;-82
2022/06/11 05:56:02;;;;;;;7.60;1.83;;;19.20;99.90;;;;;;5064291;28;20035;-82
2022/06/11 05:58:36;;;;;;;7.75;1.58;;;19.40;99.90;;;;;;5063728;28;23405;-82
2022/06/11 06:01:03;;;;;;;9.75;2.20;;;19.60;99.90;;;;;;5061167;28;20032;-82
2022/06/11 06:03:29;;;;;;;8.55;1.52;;;19.90;99.90;;;;;;5044234;28;20644;-82
2022/06/11 06:05:55;;;;;;;8.85;1.85;;;20.20;99.90;;;;;;5044088;28;20040;-81
2022/06/11 06:08:22;;;;;;;10.27;1.88;;;20.40;99.90;;;;;;5058138;28;20124;-83
2022/06/11 06:10:48;;;;;;;10.65;2.00;;;20.40;99.90;;;;;;5035190;28;20484;-83
2022/06/11 06:15:59;;;;;;;12.15;1.67;;;20.50;99.90;;;;;;5062553;28;20047;-83
2022/06/11 06:18:26;;;;;;;8.45;1.45;;;20.60;99.90;;;;;;5032248;28;20024;-82
2022/06/11 06:20:52;;;;;;;8.77;1.70;;;20.80;99.90;;;;;;5029480;28;20387;-83
2022/06/11 06:23:19;;;;;;;13.18;2.47;;;21.00;99.90;;;;;;5043932;28;20396;-83
2022/06/11 06:25:46;;;;;;;11.38;1.90;;;21.30;99.90;;;;;;5065699;28;20056;-83
2022/06/11 06:28:12;;;;;;;8.80;1.75;;;21.60;99.90;;;;;;5079005;28;20499;-82
2022/06/11 06:30:40;;;;;;;9.35;1.67;;;21.70;99.90;;;;;;5014171;28;20036;-83
2022/06/11 06:33:06;;;;;;;10.02;1.30;;;21.90;99.90;;;;;;5047373;28;20040;-83
2022/06/11 06:35:33;;;;;;;7.55;1.65;;;22.00;99.90;;;;;;5054210;28;20047;-83
2022/06/11 06:37:59;;;;;;;8.93;1.65;;;22.00;99.90;;;;;;5065173;28;20036;-83
2022/06/11 06:40:26;;;;;;;8.73;1.83;;;21.90;99.90;;;;;;5049053;28;20031;-83
2022/06/11 06:42:52;;;;;;;9.73;1.70;;;21.90;99.90;;;;;;5034369;28;20036;-83
2022/06/11 06:45:20;;;;;;;9.48;1.67;;;21.90;99.90;;;;;;5017506;28;20040;-83
2022/06/11 06:47:46;;;;;;;9.82;1.80;;;21.90;99.90;;;;;;5033613;28;20059;-83
2022/06/11 06:50:14;;;;;;;11.02;1.55;;;21.80;99.90;;;;;;5058835;28;20028;-82
2022/06/11 06:52:40;;;;;;;10.23;1.75;;;21.80;99.90;;;;;;5048565;28;20036;-82
2022/06/11 06:55:07;;;;;;;11.35;2.33;;;21.70;99.90;;;;;;5029866;28;20475;-82
2022/06/11 06:57:34;;;;;;;10.25;1.98;;;21.70;99.90;;;;;;5069374;28;20399;-82
2022/06/11 07:00:02;;;;;;;7.80;1.80;;;21.70;99.90;;;;;;5014783;28;20039;-83
2022/06/11 07:02:28;;;;;;;15.00;1.92;;;21.80;99.90;;;;;;5042587;28;20044;-83
2022/06/11 07:04:55;;;;;;;12.27;2.10;;;22.00;99.90;;;;;;5033219;28;20040;-83
2022/06/11 07:07:21;;;;;;;10.43;1.58;;;22.00;99.90;;;;;;5061563;28;20047;-83
2022/06/11 07:09:56;;;;;;;11.93;1.73;;;22.10;99.90;;;;;;5013194;28;20021;-83
2022/06/11 07:12:23;;;;;;;10.68;1.75;;;22.10;99.90;;;;;;5044097;28;20490;-82
2022/06/11 07:14:49;;;;;;;12.43;2.22;;;22.20;99.90;;;;;;5068099;28;20098;-86
2022/06/11 07:17:18;;;;;;;9.18;1.48;;;22.20;99.90;;;;;;5034316;28;20502;-83
2022/06/11 07:19:50;;;;;;;7.65;1.58;;;22.30;99.90;;;;;;5042281;28;20044;-79
2022/06/11 07:22:34;;;;;;;11.13;1.92;;;22.40;99.90;;;;;;5064851;28;20490;-83
2022/06/11 07:25:03;;;;;;;12.02;1.92;;;22.50;99.90;;;;;;5059520;28;20044;-83
2022/06/11 07:27:34;;;;;;;10.85;2.05;;;22.60;99.90;;;;;;5053045;28;20079;-83
2022/06/11 07:30:08;;;;;;;11.68;2.05;;;22.70;99.90;;;;;;5077610;28;20510;-84
2022/06/11 07:32:35;;;;;;;12.50;2.00;;;22.70;99.90;;;;;;5059745;28;20044;-85
2022/06/11 07:35:04;;;;;;;8.93;2.05;;;22.80;99.90;;;;;;5077259;28;20047;-85
2022/06/11 07:37:32;;;;;;;10.50;1.77;;;22.90;99.90;;;;;;5063516;28;20040;-86
2022/06/11 07:39:59;;;;;;;11.13;1.27;;;23.00;99.90;;;;;;5044186;28;20040;-83
2022/06/11 07:42:25;;;;;;;8.77;1.42;;;23.20;99.90;;;;;;5059774;28;20502;-83
2022/06/11 07:44:52;;;;;;;9.02;1.98;;;23.30;99.90;;;;;;5029009;28;20518;-83
2022/06/11 07:47:53;;;;;;;9.20;1.98;;;23.40;99.90;;;;;;5030546;28;20051;-83
2022/06/11 07:50:05;;;;;;;9.75;1.67;;;23.50;99.90;;;;;;5068965;28;20039;-81
2022/06/11 07:52:31;;;;;;;10.65;1.80;;;23.50;99.90;;;;;;5038472;28;20054;-83
2022/06/11 07:54:58;;;;;;;9.73;1.77;;;23.50;99.90;;;;;;5056157;28;20313;-82
2022/06/11 07:57:24;;;;;;;9.95;2.10;;;23.60;99.90;;;;;;5048083;28;20028;-82
2022/06/11 07:59:50;;;;;;;7.88;1.60;;;23.60;99.90;;;;;;5059601;28;20081;-83
2022/06/11 08:02:17;;;;;;;12.52;2.35;;;23.70;99.90;;;;;;5031115;28;20033;-84
2022/06/11 08:04:43;;;;;;;7.15;1.70;;;23.80;99.90;;;;;;5033046;28;20047;-84
2022/06/11 08:07:10;;;;;;;13.70;2.70;;;23.80;99.90;;;;;;5061974;28;20048;-83
2022/06/11 08:09:36;;;;;;;11.02;1.27;;;23.90;99.90;;;;;;5027016;28;20044;-83
2022/06/11 08:12:03;;;;;;;10.02;1.80;;;24.00;99.90;;;;;;5058423;28;20062;-83
2022/06/11 08:14:29;;;;;;;11.05;2.40;;;24.10;98.80;;;;;;5027577;28;20490;-83
2022/06/11 08:16:56;;;;;;;9.30;1.60;;;24.10;98.20;;;;;;5058408;28;20039;-85
2022/06/11 08:19:22;;;;;;;9.27;1.70;;;24.10;98.10;;;;;;5072782;28;20029;-79
2022/06/11 08:21:48;;;;;;;9.10;1.63;;;24.10;97.90;;;;;;5055750;28;20043;-80
2022/06/11 08:24:15;;;;;;;13.82;5.20;;;24.10;98.00;;;;;;5076040;28;20036;-80
2022/06/11 08:26:41;;;;;;;12.30;2.75;;;24.30;97.80;;;;;;5076779;28;20051;-79
2022/06/11 08:29:08;;;;;;;10.35;1.95;;;24.40;97.50;;;;;;5060995;28;20048;-80
2022/06/11 08:31:34;;;;;;;11.93;2.72;;;24.50;97.20;;;;;;5042140;28;20528;-80
2022/06/11 08:34:01;;;;;;;9.85;1.92;;;24.50;96.40;;;;;;5043881;28;20035;-79
2022/06/11 08:36:27;;;;;;;6.70;1.30;;;24.60;96.40;;;;;;5079483;28;20095;-80
2022/06/11 08:38:53;;;;;;;9.00;1.50;;;24.60;96.60;;;;;;5077750;28;20046;-81
2022/06/11 08:41:25;;;;;;;14.95;2.28;;;24.80;96.20;;;;;;5060548;28;20401;-80
2022/06/11 08:44:01;;;;;;;8.45;1.80;;;24.80;94.80;;;;;;5071916;28;20490;-80
2022/06/11 08:46:39;;;;;;;9.20;1.77;;;24.70;94.80;;;;;;5054384;28;20021;-80
2022/06/11 08:49:12;;;;;;;8.50;1.45;;;24.70;94.70;;;;;;5070029;28;20016;-79
2022/06/11 08:51:44;;;;;;;7.05;1.38;;;24.70;94.50;;;;;;5078016;28;20095;-81
2022/06/11 08:54:22;;;;;;;7.30;1.38;;;24.80;94.20;;;;;;5079205;28;20031;-79
2022/06/11 08:56:57;;;;;;;9.38;1.45;;;24.90;94.10;;;;;;5053578;28;20031;-82
2022/06/11 08:59:51;;;;;;;9.27;2.30;;;25.10;93.80;;;;;;5072037;28;20028;-82
2022/06/11 09:02:36;;;;;;;8.93;1.75;;;25.20;93.60;;;;;;5041363;28;20040;-82
2022/06/11 09:05:27;;;;;;;8.65;1.52;;;25.30;93.10;;;;;;5072356;28;20032;-83
2022/06/11 09:08:36;;;;;;;10.77;2.03;;;25.40;92.40;;;;;;5055912;28;20025;-83
2022/06/11 09:11:11;;;;;;;9.20;2.20;;;25.40;92.10;;;;;;5071325;28;20032;-81
2022/06/11 09:13:53;;;;;;;10.48;1.73;;;25.50;91.90;;;;;;5043026;28;20495;-80
2022/06/11 09:16:44;;;;;;;8.60;1.33;;;25.70;91.80;;;;;;5061107;28;20035;-83
2022/06/11 09:19:44;;;;;;;9.90;1.65;;;25.70;91.50;;;;;;5075901;28;20043;-80
2022/06/11 09:22:29;;;;;;;10.93;1.60;;;25.60;91.30;;;;;;5034376;28;20035;-82
2022/06/11 09:25:36;;;;;;;8.15;1.67;;;25.60;91.20;;;;;;5058900;28;20048;-84
2022/06/11 09:28:24;;;;;;;8.75;1.65;;;25.90;91.00;;;;;;5045756;28;20484;-84
2022/06/11 09:31:04;;;;;;;10.73;1.88;;;26.20;88.90;;;;;;5036992;28;20429;-83
2022/06/11 09:33:40;;;;;;;8.98;1.85;;;26.20;86.70;;;;;;5046709;28;20040;-84
2022/06/11 09:36:13;;;;;;;7.70;1.75;;;26.20;85.10;;;;;;5036528;28;20036;-80
2022/06/11 09:39:07;;;;;;;7.82;1.30;;;26.40;84.70;;;;;;5044715;28;20028;-80
2022/06/11 09:41:43;;;;;;;6.90;1.30;;;26.60;84.50;;;;;;5055429;28;20062;-79
2022/06/11 09:44:16;;;;;;;9.20;1.80;;;26.80;83.80;;;;;;5042710;28;20043;-79
2022/06/11 09:46:55;;;;;;;7.25;1.35;;;26.80;83.40;;;;;;5074086;28;20032;-79
2022/06/11 09:49:59;;;;;;;4.60;0.98;;;26.70;82.70;;;;;;5051320;28;20048;-80
2022/06/11 09:52:37;;;;;;;6.45;0.88;;;26.70;83.20;;;;;;5058752;28;20387;-79
2022/06/11 09:55:18;;;;;;;7.75;1.67;;;26.60;83.20;;;;;;5061238;28;20042;-79
2022/06/11 09:57:59;;;;;;;8.75;1.90;;;26.40;82.30;;;;;;5046299;28;20470;-79
2022/06/11 10:00:30;;;;;;;7.45;1.55;;;26.30;82.40;;;;;;5066651;28;20042;-78
2022/06/11 10:06:01;;;;;;;8.70;1.52;;;26.60;82.80;;;;;;5054613;28;20435;-79
2022/06/11 10:08:30;;;;;;;6.05;1.00;;;26.70;81.50;;;;;;5059238;28;20032;-79
2022/06/11 10:10:57;;;;;;;7.10;1.40;;;26.80;81.50;;;;;;5053173;28;20371;-79
2022/06/11 10:13:54;;;;;;;8.02;1.30;;;26.80;81.50;;;;;;5073891;28;20469;-79
2022/06/11 10:16:39;;;;;;;14.70;2.13;;;27.10;81.80;;;;;;5074325;28;20036;-79
2022/06/11 10:19:22;;;;;;;9.35;1.60;;;27.20;81.10;;;;;;5039875;28;20023;-80
2022/06/11 10:22:20;;;;;;;7.10;1.52;;;27.40;80.80;;;;;;5073187;28;20017;-80
2022/06/11 10:25:04;;;;;;;9.55;1.40;;;27.40;80.10;;;;;;5030538;28;20043;-79
2022/06/11 10:27:36;;;;;;;8.95;1.70;;;27.30;80.40;;;;;;5055975;28;20028;-80
2022/06/11 10:30:24;;;;;;;6.20;1.38;;;27.30;80.50;;;;;;5050077;28;20039;-79
2022/06/11 10:32:54;;;;;;;10.43;2.60;;;27.40;79.70;;;;;;5052821;28;20444;-79
2022/06/11 10:35:25;;;;;;;10.43;2.17;;;27.60;79.10;;;;;;5054755;28;20483;-79
2022/06/11 10:38:10;;;;;;;10.60;1.92;;;27.90;79.20;;;;;;5042946;28;20039;-78
2022/06/11 10:40:41;;;;;;;9.43;1.80;;;28.10;78.80;;;;;;5036453;28;20502;-76
2022/06/11 10:43:14;;;;;;;10.32;2.45;;;28.40;78.40;;;;;;5055958;28;20862;-77
2022/06/11 10:45:40;;;;;;;11.77;3.60;;;28.60;77.70;;;;;;5057551;28;20032;-77
2022/06/11 10:48:19;;;;;;;12.23;4.55;;;28.90;76.20;;;;;;5076348;28;20024;-77
2022/06/11 10:50:47;;;;;;;13.27;5.60;;;29.30;76.00;;;;;;5040161;28;20039;-77
2022/06/11 10:53:22;;;;;;;10.48;3.00;;;29.60;74.50;;;;;;5055080;28;21158;-78
2022/06/11 10:56:19;;;;;;;8.23;2.40;;;29.80;74.20;;;;;;5073454;28;20035;-78
2022/06/11 10:59:02;;;;;;;9.50;2.00;;;30.30;73.50;;;;;;5074969;28;20028;-76
2022/06/11 11:01:43;;;;;;;7.78;1.77;;;30.70;73.60;;;;;;5071646;28;20012;-78
2022/06/11 11:04:22;;;;;;;9.50;2.43;;;30.90;69.20;;;;;;5070561;28;20028;-78
2022/06/11 11:07:07;;;;;;;9.55;1.50;;;30.90;68.20;;;;;;5074452;28;20294;-78
2022/06/11 11:09:33;;;;;;;11.43;2.00;;;30.90;68.20;;;;;;5058807;28;20483;-78
2022/06/11 11:12:06;;;;;;;8.35;1.50;;;31.20;68.20;;;;;;5054773;28;20060;-79
2022/06/11 11:14:41;;;;;;;10.27;1.70;;;31.50;67.50;;;;;;5057780;28;20039;-77
2022/06/11 11:17:20;;;;;;;10.60;1.77;;;31.60;66.00;;;;;;5073636;28;20031;-78
2022/06/11 11:20:39;;;;;;;9.32;1.60;;;31.70;65.60;;;;;;5070599;28;20035;-78
2022/06/11 11:22:40;;;;;;;8.33;1.43;;;31.90;64.40;;;;;;5064536;28;20028;-77
2022/06/11 11:25:15;;;;;;;8.40;1.77;;;32.20;64.10;;;;;;5071114;28;20029;-78
2022/06/11 11:27:47;;;;;;;10.35;1.60;;;32.50;63.10;;;;;;5060175;28;20477;-79
2022/06/11 11:30:14;;;;;;;9.23;1.35;;;32.50;62.60;;;;;;5032994;28;20039;-79
2022/06/11 11:32:41;;;;;;;13.10;7.15;;;32.50;62.70;;;;;;5042978;28;20032;-79
2022/06/11 11:35:17;;;;;;;14.38;7.18;;;32.50;62.30;;;;;;5075087;28;20023;-78
2022/06/11 11:37:46;;;;;;;12.13;6.22;;;32.40;60.90;;;;;;5058647;28;20031;-78
2022/06/11 11:40:50;;;;;;;8.32;1.92;;;32.40;61.20;;;;;;5050557;28;20020;-77
2022/06/11 11:43:17;;;;;;;9.50;2.80;;;33.00;60.40;;;;;;5039128;28;20021;-78
2022/06/11 11:46:05;;;;;;;9.10;2.67;;;33.50;59.60;;;;;;5073674;28;20028;-79
2022/06/11 11:48:57;;;;;;;12.10;2.47;;;33.70;58.50;;;;;;5075087;28;20016;-79
2022/06/11 11:51:31;;;;;;;8.55;1.90;;;33.90;58.10;;;;;;5053014;28;20036;-78
2022/06/11 11:54:11;;;;;;;16.48;8.13;;;34.20;57.00;;;;;;5075192;28;20032;-78
2022/06/11 11:56:48;;;;;;;13.27;6.30;;;34.20;57.10;;;;;;5033296;28;20155;-78
2022/06/11 11:59:33;;;;;;;9.50;2.90;;;33.90;56.80;;;;;;5071038;28;20039;-81
2022/06/11 12:02:24;;;;;;;9.02;1.75;;;33.40;56.80;;;;;;5068074;28;20012;-78
2022/06/11 12:05:01;;;;;;;8.00;1.35;;;33.30;57.00;;;;;;5054688;28;20021;-78
2022/06/11 12:07:36;;;;;;;7.30;1.23;;;33.70;56.50;;;;;;5072679;28;20024;-78
2022/06/11 12:10:28;;;;;;;7.03;1.70;;;34.20;56.10;;;;;;5069057;28;20467;-78
2022/06/11 12:12:56;;;;;;;7.53;1.80;;;34.50;54.80;;;;;;5072146;28;20381;-83
2022/06/11 12:15:33;;;;;;;9.25;1.88;;;34.70;53.90;;;;;;5070255;28;20043;-83
2022/06/11 12:18:16;;;;;;;7.13;1.50;;;34.80;53.60;;;;;;5079637;28;20059;-83
2022/06/11 12:20:54;;;;;;;7.22;1.50;;;35.20;53.70;;;;;;5061333;28;20024;-83
2022/06/11 12:24:00;;;;;;;7.38;1.52;;;35.60;52.70;;;;;;5079547;28;20464;-84
2022/06/11 12:26:39;;;;;;;9.13;1.20;;;35.20;52.50;;;;;;5071482;28;20491;-83
2022/06/11 12:29:30;;;;;;;8.82;1.67;;;35.40;52.20;;;;;;5077708;28;20021;-83
2022/06/11 12:32:12;;;;;;;7.40;1.80;;;35.40;51.80;;;;;;5046513;28;20036;-84
2022/06/11 12:34:39;;;;;;;9.32;1.60;;;35.60;51.60;;;;;;5082464;28;20285;-83
2022/06/11 12:37:21;;;;;;;8.23;2.13;;;36.00;51.10;;;;;;5066233;28;20040;-84
2022/06/11 12:40:26;;;;;;;10.50;2.08;;;36.50;50.40;;;;;;5074390;28;20036;-84
2022/06/11 12:43:26;;;;;;;9.05;1.77;;;36.10;49.50;;;;;;5036419;28;20036;-83
2022/06/11 12:46:17;;;;;;;8.80;1.80;;;35.80;50.70;;;;;;5024067;28;20507;-84
2022/06/11 12:49:04;;;;;;;8.82;1.85;;;36.40;49.90;;;;;;5086053;28;20040;-85
2022/06/11 12:51:33;;;;;;;11.52;2.47;;;37.00;48.80;;;;;;5043777;28;20047;-84
2022/06/11 12:54:36;;;;;;;7.80;1.75;;;37.30;48.10;;;;;;5075233;28;20044;-84
2022/06/11 12:57:21;;;;;;;6.97;1.00;;;37.70;47.30;;;;;;5054144;28;20039;-83
2022/06/11 13:00:14;;;;;;;10.82;2.17;;;37.70;47.00;;;;;;5037339;28;20039;-84
2022/06/11 13:03:08;;;;;;;5.82;1.23;;;37.40;47.30;;;;;;5060127;28;20368;-84
2022/06/11 13:06:20;;;;;;;7.70;1.77;;;36.70;48.00;;;;;;5070300;28;20013;-83
2022/06/11 13:09:05;;;;;;;;;;;37.00;47.80;;;;;;5043800;28;20036;-84
2022/06/11 13:11:50;;;;;;;7.35;1.60;;;37.70;47.40;;;;;;5072078;28;19912;-84
2022/06/11 13:14:30;;;;;;;7.15;1.48;;;37.70;46.20;;;;;;5063883;28;20016;-84
2022/06/11 13:17:02;;;;;;;8.13;1.52;;;37.70;46.80;;;;;;5073321;28;20043;-83
2022/06/11 13:19:56;;;;;;;8.90;1.88;;;36.90;46.90;;;;;;5073621;28;20046;-83
2022/06/11 13:22:46;;;;;;;7.10;1.98;;;36.00;47.50;;;;;;5061765;28;20039;-84
2022/06/11 13:25:31;;;;;;;5.00;1.23;;;35.70;48.30;;;;;;5078189;28;20032;-83
2022/06/11 13:28:18;;;;;;;5.90;1.38;;;35.80;48.40;;;;;;5076835;28;20028;-84